Time;durP1;ratioP1;P1;durP2;ratioP2;P2;SDS_P1;SDS_P2;PMS_P1;PMS_P2;Temp;Humidity;BMP_temperature;BMP_pressure;BME280_temperature;BME280_humidity;BME280_pressure;Samples;Min_cycle;Max_cycle;Signal;HPM_P1;HPM_P2
2024/02/08 00:00:17;;;;;;;5.40;2.97;;;21.30;53.90;;;;;;5052749;28;20206;-71
2024/02/08 00:02:43;;;;;;;4.60;3.10;;;21.30;53.90;;;;;;5052672;28;20591;-71
2024/02/08 00:05:08;;;;;;;4.20;2.83;;;21.30;53.90;;;;;;5052586;28;20257;-71
2024/02/08 00:07:34;;;;;;;4.67;2.83;;;21.30;53.90;;;;;;5052616;28;20747;-71
2024/02/08 00:10:01;;;;;;;5.00;2.80;;;21.30;53.90;;;;;;5052504;28;20549;-71
2024/02/08 00:12:27;;;;;;;3.77;2.63;;;21.30;53.90;;;;;;5052597;28;20217;-71
2024/02/08 00:14:52;;;;;;;3.40;2.73;;;21.30;53.90;;;;;;5052188;28;21030;-71
2024/02/08 00:17:21;;;;;;;4.90;2.73;;;21.30;53.90;;;;;;5052349;28;20191;-70
2024/02/08 00:19:51;;;;;;;5.53;2.90;;;21.30;54.00;;;;;;5052404;28;20195;-71
2024/02/08 00:22:20;;;;;;;4.73;3.07;;;21.30;53.90;;;;;;5052127;28;20426;-70
2024/02/08 00:24:46;;;;;;;4.43;2.60;;;21.30;53.90;;;;;;5052171;28;20393;-71
2024/02/08 00:27:11;;;;;;;4.50;2.97;;;21.30;53.90;;;;;;5052100;28;20508;-69
2024/02/08 00:29:41;;;;;;;4.50;3.37;;;21.30;53.90;;;;;;5052134;28;20225;-72
2024/02/08 00:32:10;;;;;;;4.40;2.70;;;21.30;53.90;;;;;;5052105;28;20210;-71
2024/02/08 00:34:38;;;;;;;3.87;2.80;;;21.30;54.00;;;;;;5051937;28;20416;-70
2024/02/08 00:37:05;;;;;;;4.47;2.93;;;21.30;54.00;;;;;;5051963;28;20449;-71
2024/02/08 00:39:31;;;;;;;4.17;2.80;;;21.20;53.90;;;;;;5051877;28;20433;-71
2024/02/08 00:41:58;;;;;;;5.63;2.77;;;21.20;53.90;;;;;;5051783;28;20441;-70
2024/02/08 00:44:27;;;;;;;4.10;2.47;;;21.30;54.00;;;;;;5051872;28;20547;-70
2024/02/08 00:46:53;;;;;;;4.50;2.60;;;21.20;53.90;;;;;;5051753;28;20456;-71
2024/02/08 00:49:21;;;;;;;4.60;2.60;;;21.20;53.90;;;;;;5051685;28;20417;-70
2024/02/08 00:51:49;;;;;;;3.23;2.30;;;21.20;53.90;;;;;;5050209;28;20471;-71
2024/02/08 00:54:17;;;;;;;4.47;2.40;;;21.20;53.90;;;;;;5051658;28;21008;-71
2024/02/08 00:56:43;;;;;;;3.70;3.10;;;21.20;53.90;;;;;;5051501;28;20449;-71
2024/02/08 00:59:10;;;;;;;4.80;2.50;;;21.20;53.90;;;;;;5051470;28;20487;-71
2024/02/08 01:01:37;;;;;;;3.73;2.90;;;21.20;53.90;;;;;;5051483;28;20436;-71
2024/02/08 01:04:02;;;;;;;4.30;2.80;;;21.20;53.90;;;;;;5051430;28;20863;-71
2024/02/08 01:06:30;;;;;;;5.20;2.70;;;21.20;53.90;;;;;;5051397;28;20406;-71
2024/02/08 01:08:56;;;;;;;5.27;2.70;;;21.20;53.90;;;;;;5051137;28;20166;-71
2024/02/08 01:11:22;;;;;;;3.80;2.73;;;21.20;53.90;;;;;;5051253;28;20425;-72
2024/02/08 01:13:47;;;;;;;3.97;2.80;;;21.20;53.90;;;;;;5051285;28;20197;-71
2024/02/08 01:16:14;;;;;;;4.27;3.10;;;21.20;53.90;;;;;;5051176;28;20233;-71
2024/02/08 01:18:41;;;;;;;5.17;2.97;;;21.20;53.90;;;;;;5051098;28;20199;-72
2024/02/08 01:21:08;;;;;;;3.40;2.30;;;21.20;53.90;;;;;;5051012;28;20978;-71
2024/02/08 01:23:34;;;;;;;4.10;2.50;;;21.20;53.90;;;;;;5051078;28;20405;-71
2024/02/08 01:26:03;;;;;;;3.57;2.37;;;21.20;53.90;;;;;;5051024;28;20419;-72
2024/02/08 01:28:29;;;;;;;4.00;2.53;;;21.20;53.90;;;;;;5051057;28;20413;-72
2024/02/08 01:30:54;;;;;;;4.30;3.03;;;21.20;54.00;;;;;;5050912;28;20433;-71
2024/02/08 01:33:20;;;;;;;3.80;2.73;;;21.20;54.00;;;;;;5050937;28;20416;-71
2024/02/08 01:35:46;;;;;;;4.30;2.40;;;21.20;54.00;;;;;;5050821;28;20257;-71
2024/02/08 01:38:16;;;;;;;2.90;2.40;;;21.10;53.80;;;;;;5050790;28;20195;-71
2024/02/08 01:40:42;;;;;;;4.00;2.40;;;21.20;54.00;;;;;;5050733;28;20187;-70
2024/02/08 01:43:10;;;;;;;4.07;2.40;;;21.10;53.90;;;;;;5050677;28;20496;-71
2024/02/08 01:45:41;;;;;;;2.97;2.20;;;21.10;53.90;;;;;;5050656;28;20410;-71
2024/02/08 01:48:11;;;;;;;3.70;2.37;;;21.10;53.90;;;;;;5050979;28;20962;-70
2024/02/08 01:50:56;;;;;;;4.07;2.47;;;21.20;54.00;;;;;;5050503;28;20547;-71
2024/02/08 01:53:31;;;;;;;3.27;2.23;;;21.10;53.90;;;;;;5050573;28;20390;-73
2024/02/08 01:56:00;;;;;;;3.97;2.20;;;21.10;53.90;;;;;;5050794;28;20449;-71
2024/02/08 01:58:26;;;;;;;3.20;2.23;;;21.10;53.90;;;;;;5050567;28;20453;-71
2024/02/08 02:00:55;;;;;;;3.00;2.30;;;21.10;53.90;;;;;;5050579;28;20843;-71
2024/02/08 02:03:23;;;;;;;3.17;2.10;;;21.10;53.90;;;;;;5050471;28;20406;-69
2024/02/08 02:05:49;;;;;;;4.70;2.70;;;21.10;53.90;;;;;;5050259;28;20424;-71
2024/02/08 02:08:21;;;;;;;3.17;2.27;;;21.10;53.90;;;;;;5050361;28;20504;-71
2024/02/08 02:10:58;;;;;;;2.97;2.17;;;21.10;53.90;;;;;;5050227;28;20246;-70
2024/02/08 02:13:26;;;;;;;3.20;2.47;;;21.10;53.90;;;;;;5050325;28;20397;-71
2024/02/08 02:15:52;;;;;;;3.93;2.90;;;21.10;53.90;;;;;;5050115;28;20471;-70
2024/02/08 02:18:17;;;;;;;3.57;2.10;;;21.10;53.90;;;;;;5050206;28;20555;-71
2024/02/08 02:20:43;;;;;;;4.50;2.97;;;21.10;53.90;;;;;;5049429;28;20520;-70
2024/02/08 02:23:09;;;;;;;3.00;2.30;;;21.10;53.90;;;;;;5050130;28;20253;-70
2024/02/08 02:25:38;;;;;;;4.53;2.60;;;21.10;53.90;;;;;;5050116;28;20163;-71
2024/02/08 02:28:07;;;;;;;4.27;3.10;;;21.10;53.90;;;;;;5050021;28;20474;-70
2024/02/08 02:30:35;;;;;;;3.90;2.50;;;21.10;53.90;;;;;;5049895;28;20409;-71
2024/02/08 02:33:05;;;;;;;5.73;2.77;;;21.10;53.90;;;;;;5049949;28;20459;-71
2024/02/08 02:35:32;;;;;;;3.13;1.90;;;21.10;53.90;;;;;;5050075;28;20884;-71
2024/02/08 02:38:02;;;;;;;3.70;2.13;;;21.10;53.90;;;;;;5050149;28;20540;-71
2024/02/08 02:40:30;;;;;;;3.13;2.40;;;21.10;53.90;;;;;;5049968;28;20881;-71
2024/02/08 02:42:56;;;;;;;4.60;2.67;;;21.10;53.90;;;;;;5049948;28;20413;-70
2024/02/08 02:45:23;;;;;;;3.00;2.10;;;21.10;53.90;;;;;;5048412;28;20406;-71
2024/02/08 02:47:53;;;;;;;4.17;2.17;;;21.10;53.90;;;;;;5049787;28;20406;-71
2024/02/08 02:50:20;;;;;;;3.10;2.23;;;21.10;53.90;;;;;;5049669;28;20414;-71
2024/02/08 02:52:46;;;;;;;3.10;1.93;;;21.10;53.90;;;;;;5049954;28;20787;-71
2024/02/08 02:55:13;;;;;;;4.10;2.30;;;21.10;53.90;;;;;;5049737;28;20418;-72
2024/02/08 02:57:42;;;;;;;4.40;2.97;;;21.10;53.90;;;;;;5049892;28;20457;-71
2024/02/08 03:00:33;;;;;;;2.97;2.20;;;21.10;53.90;;;;;;5049733;28;20736;-72
2024/02/08 03:03:06;;;;;;;4.03;2.40;;;21.10;53.90;;;;;;5049718;28;20405;-71
2024/02/08 03:05:37;;;;;;;5.33;3.27;;;21.10;53.90;;;;;;5049737;28;20393;-71
2024/02/08 03:08:06;;;;;;;3.03;2.10;;;21.10;53.90;;;;;;5050138;28;20397;-71
2024/02/08 03:10:33;;;;;;;3.40;2.40;;;21.10;53.90;;;;;;5049566;28;20409;-71
2024/02/08 03:12:59;;;;;;;2.83;2.40;;;21.10;53.90;;;;;;5049583;28;20421;-71
2024/02/08 03:15:25;;;;;;;2.90;2.03;;;21.10;53.90;;;;;;5049392;28;20452;-71
2024/02/08 03:17:50;;;;;;;3.77;1.97;;;21.10;53.90;;;;;;5049543;28;20206;-72
2024/02/08 03:20:17;;;;;;;2.50;1.67;;;21.10;53.90;;;;;;5049728;28;20167;-71
2024/02/08 03:22:46;;;;;;;2.83;2.17;;;21.10;53.90;;;;;;5049622;28;20178;-72
2024/02/08 03:25:14;;;;;;;2.40;1.90;;;21.10;53.90;;;;;;5049803;28;20604;-72
2024/02/08 03:27:44;;;;;;;3.63;2.50;;;21.10;53.90;;;;;;5049450;28;20406;-72
2024/02/08 03:30:20;;;;;;;3.83;2.37;;;21.10;53.90;;;;;;5049532;28;20409;-73
2024/02/08 03:32:55;;;;;;;3.73;2.17;;;21.10;53.90;;;;;;5053477;28;20404;-72
2024/02/08 03:35:27;;;;;;;3.90;1.83;;;21.10;53.90;;;;;;5053091;28;20413;-72
2024/02/08 03:37:56;;;;;;;2.40;1.87;;;21.10;53.90;;;;;;5053149;28;20452;-72
2024/02/08 03:40:25;;;;;;;3.33;1.80;;;21.10;53.90;;;;;;5052945;28;21235;-72
2024/02/08 03:42:53;;;;;;;3.63;2.23;;;21.10;53.90;;;;;;5053021;28;20417;-72
2024/02/08 03:45:23;;;;;;;3.53;2.33;;;21.10;53.90;;;;;;5053006;28;20779;-72
2024/02/08 03:48:01;;;;;;;3.50;2.50;;;21.10;53.90;;;;;;5053285;28;20810;-72
2024/02/08 03:50:33;;;;;;;3.10;1.93;;;21.10;53.90;;;;;;5052913;28;20401;-72
2024/02/08 03:53:03;;;;;;;3.80;2.20;;;21.10;53.90;;;;;;5052817;28;20512;-72
2024/02/08 03:55:28;;;;;;;3.20;1.87;;;21.10;54.40;;;;;;5052722;28;20421;-73
2024/02/08 03:57:56;;;;;;;2.47;2.20;;;21.00;53.80;;;;;;5052874;28;20453;-72
2024/02/08 04:00:28;;;;;;;3.63;2.00;;;21.00;53.80;;;;;;5051256;28;20566;-72
2024/02/08 04:03:10;;;;;;;2.60;1.70;;;21.00;53.80;;;;;;5052718;28;20390;-72
2024/02/08 04:05:37;;;;;;;3.20;1.83;;;21.00;54.20;;;;;;5052673;28;20386;-72
2024/02/08 04:54:41;;;;;;;3.40;2.10;;;21.00;54.00;;;;;;5052161;28;20409;-72
2024/02/08 04:57:07;;;;;;;2.50;1.70;;;20.90;53.90;;;;;;5051701;28;20461;-73
2024/02/08 04:59:44;;;;;;;3.30;2.17;;;20.90;53.90;;;;;;5051933;28;20190;-72
2024/02/08 05:02:10;;;;;;;2.07;1.50;;;20.90;53.90;;;;;;5051560;28;20428;-72
2024/02/08 05:04:36;;;;;;;2.80;2.10;;;20.90;53.90;;;;;;5050247;28;20459;-72
2024/02/08 05:07:09;;;;;;;3.13;1.70;;;20.90;53.90;;;;;;5051600;28;20907;-73
2024/02/08 05:09:35;;;;;;;2.47;1.60;;;20.90;53.90;;;;;;5051899;28;20646;-71
2024/02/08 05:12:05;;;;;;;1.87;1.60;;;20.90;53.80;;;;;;5051412;28;20447;-73
2024/02/08 05:14:38;;;;;;;2.80;1.90;;;21.00;53.90;;;;;;5051435;28;20179;-73
2024/02/08 05:17:04;;;;;;;2.20;1.70;;;21.00;53.90;;;;;;5051323;28;20495;-72
2024/02/08 05:19:30;;;;;;;2.73;1.60;;;21.00;53.90;;;;;;5051101;28;20425;-71
2024/02/08 05:21:58;;;;;;;2.23;1.67;;;21.00;53.90;;;;;;5051294;28;20195;-71
2024/02/08 05:24:27;;;;;;;2.97;1.83;;;21.00;53.90;;;;;;5051211;28;20183;-73
2024/02/08 05:26:54;;;;;;;3.63;2.20;;;21.00;53.90;;;;;;5051205;28;20490;-74
2024/02/08 05:29:19;;;;;;;2.53;2.03;;;21.00;53.80;;;;;;5051110;28;20927;-73
2024/02/08 05:31:49;;;;;;;3.57;2.17;;;21.00;53.80;;;;;;5051078;28;20441;-73
2024/02/08 05:34:16;;;;;;;2.83;1.90;;;21.00;53.80;;;;;;5051345;28;20182;-73
2024/02/08 05:36:42;;;;;;;3.43;1.70;;;21.00;53.80;;;;;;5051469;28;20444;-71
2024/02/08 05:39:12;;;;;;;3.20;2.27;;;21.00;53.80;;;;;;5051272;28;20402;-73
2024/02/08 05:41:44;;;;;;;3.80;2.60;;;21.00;53.80;;;;;;5051401;28;20527;-73
2024/02/08 05:44:12;;;;;;;2.10;1.70;;;21.00;53.80;;;;;;5051074;28;20428;-73
2024/02/08 05:46:38;;;;;;;3.00;1.87;;;21.00;53.80;;;;;;5050907;28;20416;-73
2024/02/08 05:49:05;;;;;;;2.40;1.60;;;21.00;53.80;;;;;;5050800;28;20398;-72
2024/02/08 05:51:35;;;;;;;2.20;1.80;;;21.00;53.80;;;;;;5050675;28;20425;-72
2024/02/08 05:54:05;;;;;;;3.37;2.07;;;21.00;53.80;;;;;;5049908;28;20404;-72
2024/02/08 05:56:39;;;;;;;2.20;1.67;;;21.00;53.80;;;;;;5050883;28;20401;-72
2024/02/08 05:59:08;;;;;;;3.10;2.10;;;21.00;53.80;;;;;;5050650;28;20393;-73
2024/02/08 06:01:44;;;;;;;2.87;1.70;;;21.00;53.80;;;;;;5050590;28;20932;-74
2024/02/08 06:04:22;;;;;;;2.40;2.00;;;21.00;54.30;;;;;;5050307;28;20389;-73
2024/02/08 06:06:53;;;;;;;3.10;1.77;;;21.00;53.80;;;;;;5050709;28;20496;-73
2024/02/08 06:12:10;;;;;;;2.70;1.80;;;21.00;53.80;;;;;;5050653;28;20427;-71
2024/02/08 06:14:39;;;;;;;2.33;1.60;;;21.10;53.90;;;;;;5049991;28;20440;-71
2024/02/08 06:17:08;;;;;;;2.50;1.70;;;21.00;53.80;;;;;;5049916;28;20450;-71
2024/02/08 06:19:49;;;;;;;2.40;1.73;;;21.10;53.90;;;;;;5050269;28;20413;-72
2024/02/08 06:22:20;;;;;;;2.40;1.30;;;21.00;53.80;;;;;;5050126;28;20429;-71
2024/02/08 06:24:56;;;;;;;1.60;1.40;;;21.00;53.80;;;;;;5050158;28;20437;-72
2024/02/08 06:27:33;;;;;;;2.73;1.77;;;21.10;53.90;;;;;;5050499;28;20397;-71
2024/02/08 06:30:07;;;;;;;2.90;1.90;;;21.10;53.90;;;;;;5050157;28;20401;-72
2024/02/08 06:35:11;;;;;;;3.47;1.87;;;21.10;53.90;;;;;;5050066;28;20413;-71
2024/02/08 06:37:56;;;;;;;2.17;1.47;;;21.10;53.90;;;;;;5050067;28;20944;-72
2024/02/08 06:40:37;;;;;;;2.40;1.60;;;21.10;53.90;;;;;;5050300;28;20394;-72
2024/02/08 06:48:35;;;;;;;3.23;2.00;;;21.20;54.00;;;;;;5050874;28;20419;-72
2024/02/08 07:37:17;;;;;;;5.40;2.77;;;21.20;53.90;;;;;;5050620;28;20456;-72
2024/02/08 07:37:46;;;;;;;1.73;1.40;;;21.40;53.80;;;;;;5053896;28;20455;-71
2024/02/08 07:45:46;;;;;;;3.53;1.80;;;21.40;53.80;;;;;;5054120;28;20453;-69
2024/02/08 07:51:03;;;;;;;1.80;1.40;;;21.40;54.40;;;;;;5053564;28;20525;-70
2024/02/08 07:56:37;;;;;;;2.17;1.87;;;21.40;53.80;;;;;;5053883;28;20397;-70
2024/02/08 07:59:04;;;;;;;2.23;1.63;;;21.40;53.80;;;;;;5053505;28;20841;-71
2024/02/08 08:01:38;;;;;;;2.40;1.40;;;21.40;53.80;;;;;;5053294;28;20429;-70
2024/02/08 08:04:09;;;;;;;2.17;1.60;;;21.40;53.80;;;;;;5053458;28;20880;-70
2024/02/08 08:06:34;;;;;;;2.47;1.50;;;21.40;53.80;;;;;;5053327;28;20900;-71
2024/02/08 08:09:19;;;;;;;2.43;1.30;;;21.40;53.80;;;;;;5053549;28;20422;-69
2024/02/08 08:11:47;;;;;;;2.93;1.63;;;21.40;53.80;;;;;;5053231;28;20214;-71
2024/02/08 08:15:04;;;;;;;1.87;1.47;;;21.40;53.80;;;;;;5053102;28;20433;-69
2024/02/08 08:17:08;;;;;;;3.23;1.43;;;21.50;53.80;;;;;;5052143;28;21038;-72
2024/02/08 08:19:46;;;;;;;1.70;1.20;;;21.40;53.80;;;;;;5053199;28;20472;-70
2024/02/08 08:27:47;;;;;;;2.37;1.40;;;21.50;53.80;;;;;;5053322;28;20456;-71
2024/02/08 08:30:27;;;;;;;1.50;1.17;;;21.50;53.80;;;;;;5052951;28;20482;-71
2024/02/08 08:35:45;;;;;;;2.67;1.80;;;21.50;53.80;;;;;;5053302;28;20406;-69
2024/02/08 08:40:47;;;;;;;2.60;1.33;;;21.50;53.80;;;;;;5053087;28;20928;-70
2024/02/08 08:43:20;;;;;;;1.97;1.40;;;21.50;53.80;;;;;;5052661;28;20410;-69
2024/02/08 08:45:59;;;;;;;1.63;1.30;;;21.50;53.80;;;;;;5052789;28;20394;-69
2024/02/08 08:48:31;;;;;;;1.77;1.40;;;21.50;53.80;;;;;;5052654;28;20444;-70
2024/02/08 08:50:59;;;;;;;2.23;1.60;;;21.50;53.80;;;;;;5052488;28;20444;-69
2024/02/08 08:53:28;;;;;;;1.40;1.17;;;21.50;53.80;;;;;;5052584;28;20482;-69
2024/02/08 08:55:55;;;;;;;2.10;1.43;;;21.50;53.80;;;;;;5052450;28;20424;-69
2024/02/08 08:58:27;;;;;;;1.70;1.33;;;21.50;53.80;;;;;;5052300;28;20503;-69
2024/02/08 09:01:11;;;;;;;1.40;1.10;;;21.50;53.80;;;;;;5051365;28;20450;-70
2024/02/08 09:03:39;;;;;;;2.13;1.50;;;21.50;53.80;;;;;;5052418;28;20417;-70
2024/02/08 09:06:11;;;;;;;2.33;1.83;;;21.50;53.80;;;;;;5052512;28;20758;-70
2024/02/08 09:08:54;;;;;;;1.97;1.63;;;21.50;53.80;;;;;;5052299;28;20402;-69
2024/02/08 09:11:24;;;;;;;2.37;1.50;;;21.50;53.90;;;;;;5052376;28;20441;-70
2024/02/08 09:13:51;;;;;;;2.47;1.80;;;21.50;53.90;;;;;;5052287;28;20424;-71
2024/02/08 09:21:32;;;;;;;2.80;1.30;;;21.50;53.90;;;;;;5052239;28;20992;-70
2024/02/08 09:24:11;;;;;;;2.30;1.43;;;21.50;53.90;;;;;;5051951;28;20475;-70
2024/02/08 09:26:56;;;;;;;2.70;1.57;;;21.50;53.90;;;;;;5051831;28;20518;-69
2024/02/08 09:29:25;;;;;;;2.80;1.57;;;21.50;54.00;;;;;;5051768;28;20400;-70
2024/02/08 09:31:57;;;;;;;2.73;1.57;;;21.50;54.00;;;;;;5051759;28;20432;-70
2024/02/08 09:34:37;;;;;;;1.73;1.20;;;21.50;54.00;;;;;;5051717;28;20916;-69
2024/02/08 09:37:09;;;;;;;2.30;1.57;;;21.50;54.00;;;;;;5051954;28;20463;-69
2024/02/08 09:42:26;;;;;;;3.77;1.63;;;21.50;54.60;;;;;;5051849;28;20427;-70
2024/02/08 09:44:56;;;;;;;2.73;1.43;;;21.40;54.00;;;;;;5051629;28;20390;-69
2024/02/08 09:47:31;;;;;;;1.50;1.40;;;21.40;54.00;;;;;;5051541;28;20505;-70
2024/02/08 09:50:00;;;;;;;1.50;1.20;;;21.40;54.50;;;;;;5051708;28;20404;-69
2024/02/08 09:52:30;;;;;;;1.73;1.37;;;21.40;54.00;;;;;;5051344;28;20429;-70
2024/02/08 09:55:06;;;;;;;2.60;1.47;;;21.40;54.00;;;;;;5051392;28;20479;-70
2024/02/08 09:57:45;;;;;;;2.87;1.50;;;21.50;54.10;;;;;;5051381;28;20445;-70
2024/02/08 10:00:34;;;;;;;1.93;1.73;;;21.40;54.00;;;;;;5051583;28;20420;-70
2024/02/08 10:03:06;;;;;;;5.07;1.50;;;21.40;54.00;;;;;;5051089;28;20426;-69
2024/02/08 10:05:51;;;;;;;1.67;1.40;;;21.40;54.00;;;;;;5051234;28;20400;-71
2024/02/08 10:08:28;;;;;;;2.20;1.47;;;21.40;53.90;;;;;;5051145;28;20775;-70
2024/02/08 10:11:23;;;;;;;1.60;1.20;;;21.40;53.90;;;;;;5051003;28;20441;-70
2024/02/08 10:14:01;;;;;;;2.37;1.50;;;21.40;53.90;;;;;;5051088;28;20404;-69
2024/02/08 10:16:41;;;;;;;1.43;1.10;;;21.40;53.80;;;;;;5051040;28;20523;-70
2024/02/08 10:19:24;;;;;;;2.80;1.60;;;21.40;53.80;;;;;;5051031;28;20394;-67
2024/02/08 10:22:02;;;;;;;1.70;1.60;;;21.40;53.80;;;;;;5051053;28;20412;-70
2024/02/08 10:27:19;;;;;;;2.40;1.60;;;21.40;53.70;;;;;;5050924;28;20388;-68
2024/02/08 10:29:51;;;;;;;2.03;1.50;;;21.40;53.70;;;;;;5050727;28;20409;-70
2024/02/08 10:32:19;;;;;;;2.77;1.70;;;21.40;53.70;;;;;;5050745;28;20422;-70
2024/02/08 10:34:46;;;;;;;2.83;2.00;;;21.40;53.60;;;;;;5050739;28;20406;-69
2024/02/08 10:40:00;;;;;;;1.80;1.60;;;21.40;53.50;;;;;;5050242;28;20409;-71
2024/02/08 10:42:29;;;;;;;3.60;2.10;;;21.40;53.50;;;;;;5050618;28;20803;-70
2024/02/08 10:45:05;;;;;;;2.67;1.70;;;21.40;53.50;;;;;;5051099;28;20463;-70
2024/02/08 10:47:39;;;;;;;2.97;1.60;;;21.40;53.50;;;;;;5050743;28;20915;-70
2024/02/08 10:50:19;;;;;;;2.27;1.60;;;21.40;53.60;;;;;;5050736;28;20398;-70
2024/02/08 10:52:48;;;;;;;3.10;1.93;;;21.40;53.60;;;;;;5050575;28;20402;-70
2024/02/08 10:55:18;;;;;;;3.30;1.90;;;21.40;53.60;;;;;;5050633;28;20409;-70
2024/02/08 11:03:08;;;;;;;2.57;1.70;;;21.40;54.10;;;;;;5051065;28;20393;-70
2024/02/08 11:05:47;;;;;;;2.97;2.07;;;21.40;53.60;;;;;;5050776;28;20405;-70
2024/02/08 11:08:23;;;;;;;1.93;1.60;;;21.30;53.50;;;;;;5050528;28;20884;-70
2024/02/08 11:10:52;;;;;;;3.60;1.93;;;21.30;53.50;;;;;;5050415;28;20429;-69
2024/02/08 11:13:29;;;;;;;2.60;1.73;;;21.30;53.50;;;;;;5050500;28;20410;-70
2024/02/08 11:16:04;;;;;;;2.43;1.77;;;21.30;53.50;;;;;;5050535;28;21252;-70
2024/02/08 11:18:35;;;;;;;2.97;2.23;;;21.30;53.50;;;;;;5050677;28;20520;-69
2024/02/08 11:21:05;;;;;;;1.70;1.53;;;21.30;53.50;;;;;;5049016;28;21012;-70
2024/02/08 11:23:32;;;;;;;2.67;1.47;;;21.40;53.70;;;;;;5050464;28;20409;-70
2024/02/08 11:26:08;;;;;;;2.30;1.63;;;21.40;53.70;;;;;;5050451;28;20405;-70
2024/02/08 11:28:50;;;;;;;2.80;1.63;;;21.30;53.50;;;;;;5050318;28;20454;-69
2024/02/08 11:31:17;;;;;;;8.10;2.47;;;21.30;53.60;;;;;;5050241;28;20433;-70
2024/02/08 11:33:44;;;;;;;6.20;2.00;;;21.40;53.70;;;;;;5050238;28;20863;-69
2024/02/08 11:36:12;;;;;;;2.97;1.73;;;21.30;53.60;;;;;;5050545;28;20955;-70
2024/02/08 11:38:40;;;;;;;3.03;1.90;;;21.30;53.60;;;;;;5050164;28;21006;-72
2024/02/08 11:41:09;;;;;;;1.97;1.77;;;21.30;53.60;;;;;;5050309;28;20429;-69
2024/02/08 11:43:41;;;;;;;5.50;1.90;;;21.30;53.60;;;;;;5050079;28;20415;-70
2024/02/08 11:46:18;;;;;;;3.00;1.60;;;21.30;53.60;;;;;;5050120;28;20389;-69
2024/02/08 11:48:47;;;;;;;2.53;2.20;;;21.30;53.60;;;;;;5050119;28;20818;-70
2024/02/08 11:51:17;;;;;;;3.43;1.60;;;21.30;53.70;;;;;;5050010;28;20850;-69
2024/02/08 11:53:44;;;;;;;3.13;1.77;;;21.30;53.70;;;;;;5052486;28;20410;-70
2024/02/08 11:56:11;;;;;;;2.30;1.37;;;21.30;53.70;;;;;;5053561;28;20417;-69
2024/02/08 11:58:42;;;;;;;4.67;1.73;;;21.30;53.70;;;;;;5053341;28;20508;-69
2024/02/08 12:01:10;;;;;;;2.30;1.50;;;21.30;53.70;;;;;;5053479;28;20467;-69
2024/02/08 12:03:42;;;;;;;2.63;1.50;;;21.30;53.70;;;;;;5053380;28;20409;-69
2024/02/08 12:06:22;;;;;;;2.37;1.50;;;21.30;53.70;;;;;;5053698;28;20406;-69
2024/02/08 12:09:02;;;;;;;2.67;1.70;;;21.40;53.70;;;;;;5053403;28;20973;-69
2024/02/08 12:11:32;;;;;;;3.17;1.90;;;21.40;53.80;;;;;;5051923;28;20499;-70
2024/02/08 12:14:01;;;;;;;4.07;2.10;;;21.30;53.70;;;;;;5052829;28;20814;-70
2024/02/08 12:16:29;;;;;;;3.07;1.90;;;21.40;53.80;;;;;;5052261;28;20440;-70
2024/02/08 12:18:56;;;;;;;1.87;1.57;;;21.30;53.70;;;;;;5050914;28;20469;-71
2024/02/08 12:21:23;;;;;;;3.53;1.60;;;21.40;53.80;;;;;;5052360;28;20425;-69
2024/02/08 12:23:53;;;;;;;2.63;1.67;;;21.40;53.80;;;;;;5052287;28;20498;-69
2024/02/08 12:26:23;;;;;;;3.10;1.77;;;21.40;53.80;;;;;;5052218;28;20417;-69
2024/02/08 12:28:56;;;;;;;4.87;1.83;;;21.40;53.80;;;;;;5052068;28;20469;-69
2024/02/08 12:31:24;;;;;;;3.63;1.60;;;21.40;53.80;;;;;;5052062;28;20429;-70
2024/02/08 12:33:53;;;;;;;3.37;1.50;;;21.40;53.80;;;;;;5052080;28;20467;-70
2024/02/08 12:36:24;;;;;;;2.60;1.73;;;21.40;53.80;;;;;;5052113;28;20418;-69
2024/02/08 12:38:51;;;;;;;1.87;1.50;;;21.30;53.70;;;;;;5051851;28;20448;-70
2024/02/08 12:41:21;;;;;;;2.87;1.80;;;21.40;53.80;;;;;;5051801;28;21077;-69
2024/02/08 12:43:51;;;;;;;4.13;1.87;;;21.30;53.80;;;;;;5051846;28;20790;-70
2024/02/08 12:46:17;;;;;;;3.07;2.10;;;21.30;53.70;;;;;;5051878;28;20436;-70
2024/02/08 12:48:43;;;;;;;2.23;1.87;;;21.30;53.70;;;;;;5051763;28;20409;-69
2024/02/08 12:51:13;;;;;;;2.30;1.60;;;21.30;53.80;;;;;;5051710;28;20429;-69
2024/02/08 12:53:39;;;;;;;2.27;1.60;;;21.30;53.80;;;;;;5051766;28;20676;-69
2024/02/08 12:56:11;;;;;;;6.80;2.03;;;21.30;53.80;;;;;;5051625;28;20471;-70
2024/02/08 12:58:37;;;;;;;2.77;1.90;;;21.30;53.80;;;;;;5051534;28;20476;-69
2024/02/08 13:01:07;;;;;;;3.13;1.73;;;21.30;53.80;;;;;;5051507;28;20426;-68
2024/02/08 13:03:37;;;;;;;4.50;2.40;;;21.30;53.80;;;;;;5051113;28;20169;-70
2024/02/08 13:06:03;;;;;;;4.70;2.30;;;21.30;53.80;;;;;;5051702;28;20485;-70
2024/02/08 13:08:33;;;;;;;10.53;3.93;;;21.30;53.80;;;;;;5051331;28;20464;-69
2024/02/08 13:11:00;;;;;;;9.43;3.70;;;21.30;53.80;;;;;;5051364;28;20779;-70
2024/02/08 13:13:26;;;;;;;11.97;4.30;;;21.30;53.80;;;;;;5051610;28;20414;-70
2024/02/08 13:16:04;;;;;;;10.90;5.10;;;21.30;53.80;;;;;;5051197;28;20464;-70
2024/02/08 13:18:30;;;;;;;8.60;4.23;;;21.30;53.80;;;;;;5051137;28;20277;-68
2024/02/08 13:21:00;;;;;;;16.40;5.47;;;21.30;53.80;;;;;;5051113;28;20505;-69
2024/02/08 13:23:29;;;;;;;12.63;5.53;;;21.30;53.90;;;;;;5051429;28;20409;-69
2024/02/08 13:25:55;;;;;;;14.20;5.23;;;21.30;53.90;;;;;;5051112;28;20401;-69
2024/02/08 13:28:25;;;;;;;13.93;4.47;;;21.30;53.90;;;;;;5051055;28;20449;-69
2024/02/08 13:30:57;;;;;;;17.57;6.80;;;21.30;53.90;;;;;;5050881;28;20429;-69
2024/02/08 13:33:23;;;;;;;16.13;5.37;;;21.30;53.90;;;;;;5050935;28;20421;-70
2024/02/08 13:35:52;;;;;;;12.27;6.07;;;21.30;53.90;;;;;;5050872;28;20413;-70
2024/02/08 13:38:22;;;;;;;11.07;5.43;;;21.30;53.90;;;;;;5049417;28;20461;-70
2024/02/08 13:40:52;;;;;;;10.17;4.90;;;21.30;53.90;;;;;;5051090;28;20548;-67
2024/02/08 13:43:19;;;;;;;16.73;7.13;;;21.30;53.90;;;;;;5050971;28;20413;-70
2024/02/08 13:45:45;;;;;;;13.10;5.47;;;21.30;53.90;;;;;;5051015;28;20496;-70
2024/02/08 13:48:12;;;;;;;13.60;5.00;;;21.30;53.90;;;;;;5050710;28;20463;-70
2024/02/08 13:50:38;;;;;;;13.23;5.90;;;21.30;53.90;;;;;;5050887;28;21008;-70
2024/02/08 13:53:04;;;;;;;11.57;5.50;;;21.30;53.90;;;;;;5050622;28;20409;-70
2024/02/08 13:55:33;;;;;;;14.43;5.47;;;21.30;53.90;;;;;;5050537;28;20420;-69
2024/02/08 13:58:00;;;;;;;12.47;5.57;;;21.30;53.90;;;;;;5050437;28;20202;-71
2024/02/08 14:00:27;;;;;;;10.80;5.53;;;21.30;53.90;;;;;;5050422;28;20405;-71
2024/02/08 14:02:54;;;;;;;15.97;5.90;;;21.30;53.90;;;;;;5050508;28;20421;-71
2024/02/08 14:05:23;;;;;;;14.17;5.43;;;21.30;53.90;;;;;;5050338;28;20437;-71
2024/02/08 14:07:52;;;;;;;15.30;5.57;;;21.30;53.90;;;;;;5050352;28;20986;-71
2024/02/08 14:10:32;;;;;;;11.83;5.73;;;21.30;53.90;;;;;;5050257;28;20405;-71
2024/02/08 14:12:59;;;;;;;16.10;6.27;;;21.30;53.90;;;;;;5050571;28;20398;-70
2024/02/08 14:15:31;;;;;;;12.53;5.17;;;21.30;53.90;;;;;;5049408;28;20426;-71
2024/02/08 14:21:00;;;;;;;10.10;4.97;;;21.30;53.90;;;;;;5037777;28;20433;-71
2024/02/08 14:23:31;;;;;;;10.67;5.27;;;21.30;53.90;;;;;;5050140;28;20912;-70
2024/02/08 14:26:09;;;;;;;13.63;4.33;;;21.30;53.90;;;;;;5050399;28;20398;-70
2024/02/08 14:28:42;;;;;;;11.13;6.17;;;21.30;54.00;;;;;;5050131;28;20429;-69
2024/02/08 14:31:11;;;;;;;11.20;5.10;;;21.30;53.90;;;;;;5050209;28;20456;-71
2024/02/08 14:33:37;;;;;;;11.43;6.03;;;21.30;53.90;;;;;;5050054;28;21002;-70
2024/02/08 14:36:08;;;;;;;12.30;5.13;;;21.30;53.90;;;;;;5048969;28;20429;-71
2024/02/08 14:38:40;;;;;;;9.60;4.83;;;21.30;53.90;;;;;;5050159;28;20445;-71
2024/02/08 14:41:07;;;;;;;17.07;6.60;;;21.30;54.00;;;;;;5049892;28;20421;-69
2024/02/08 14:43:33;;;;;;;6.83;4.73;;;21.30;54.00;;;;;;5048766;28;20410;-71
2024/02/08 14:45:59;;;;;;;10.10;5.57;;;21.30;53.90;;;;;;5049966;28;20409;-71
2024/02/08 14:48:28;;;;;;;8.97;4.60;;;21.30;53.90;;;;;;5049872;28;20416;-70
2024/02/08 14:51:40;;;;;;;15.77;5.57;;;21.30;54.00;;;;;;5049770;28;20962;-71
2024/02/08 14:53:45;;;;;;;11.63;5.70;;;21.30;54.00;;;;;;5049255;28;20425;-71
2024/02/08 14:56:19;;;;;;;17.53;4.60;;;21.30;54.00;;;;;;5049772;28;20413;-72
2024/02/08 14:59:09;;;;;;;18.17;5.97;;;21.30;54.00;;;;;;5049960;28;20603;-72
2024/02/08 15:01:38;;;;;;;14.73;6.03;;;21.30;54.10;;;;;;5049681;28;20532;-71
2024/02/08 15:04:15;;;;;;;11.80;4.83;;;21.30;54.10;;;;;;5049814;28;20409;-71
2024/02/08 15:07:06;;;;;;;11.10;4.33;;;21.30;54.10;;;;;;5048366;28;20402;-70
2024/02/08 15:14:43;;;;;;;12.33;4.73;;;21.30;54.10;;;;;;5049564;28;20870;-70
2024/02/08 15:17:18;;;;;;;12.33;5.57;;;21.30;54.10;;;;;;5049572;28;20467;-70
2024/02/08 15:19:48;;;;;;;12.33;5.20;;;21.30;54.10;;;;;;5049622;28;20423;-72
2024/02/08 15:25:04;;;;;;;12.57;5.23;;;21.30;54.10;;;;;;5049929;28;20398;-70
2024/02/08 15:27:47;;;;;;;11.83;5.10;;;21.30;54.10;;;;;;5051859;28;20769;-71
2024/02/08 15:30:15;;;;;;;13.33;4.80;;;21.30;54.00;;;;;;5053364;28;20492;-71
2024/02/08 15:33:04;;;;;;;12.40;5.67;;;21.30;54.10;;;;;;5053104;28;20475;-72
2024/02/08 15:35:36;;;;;;;7.93;4.57;;;21.30;54.00;;;;;;5053183;28;20472;-71